Portada
METAR-TAF:

METAR-TAF

Aeroports :

Udaipur, Índia

latitud: 24-37-04N, longitud: 73-53-46E, altitud: 513 m

Observació

L'informe es va fer fa 9 hores i 32 minuts, a les 14:30 UTC
Vent calma
Temperatura 20°C
Humitat 94%
Pressió 1018 hPa
Visibilitat: 2500 m
calitja

METAR: VAUD 211430Z 00000KT 2500 HZ NSC 20/19 Q1018 NOSIG

Hora: 05:32 (00:02 UTC)

Pronòstic

L'informe es va fer fa 1 hora i 2 minuts, a les 23:00 UTC
Pronòstic vàlid del 22 a les 00 UTC al 22 a les 09 UTC
Vent 3 kt amb direcció variable
Visibilitat: 2500 m
Escasses núvols a una alçada de 3500 ft
calitja
Evolucionant progressivament
l' 22 a les 05 UTC al 22 a les 07 UTC
Vent 5 kt del Nord-Est
Visibilitat: 5000 m
Escasses núvols a una alçada de 3500 ft
Núvols disperses a una alçada de 10000 ft
calitja

TAF: VAUD 212300Z 2200/2209 VRB03KT 2500 HZ FEW035 BECMG 2205/2207 05005KT 5000 HZ FEW035 SCT100

Observacions i pronòstics meteorològics de més de 4000 aeroports (METAR i TAF).

Les estacions disponibles són els punts grocs i vermells al mapa.

Posi el ratolí al punt desitjat per veure el nom de l'estació.

Feu clic per veure les observacions i els pronòstics meteorològics.

Per canviar el mapa: feu clic els botons verds amb una creu de color negre per apropar; al botó verd amb un guió per allunyar la imatge; o en les fletxes verdes per a mapes adjacents.


METAR-TAF: